Time;durP1;ratioP1;P1;durP2;ratioP2;P2;SDS_P1;SDS_P2;PMS_P1;PMS_P2;Temp;Humidity;BMP_temperature;BMP_pressure;BME280_temperature;BME280_humidity;BME280_pressure;Samples;Min_cycle;Max_cycle;Signal;HPM_P1;HPM_P2
2021/07/24 00:00:05;;;;;;;14.57;9.02;;;21.70;99.90;;;;;;5031655;28;20041;-64
2021/07/24 00:02:31;;;;;;;16.27;9.32;;;21.80;99.90;;;;;;5032015;28;20124;-64
2021/07/24 00:04:56;;;;;;;13.27;8.55;;;21.80;99.90;;;;;;5031822;28;20116;-64
2021/07/24 00:07:22;;;;;;;14.25;8.43;;;21.70;99.90;;;;;;5031856;28;20025;-64
2021/07/24 00:09:48;;;;;;;13.00;8.57;;;21.70;99.90;;;;;;5031693;28;20095;-64
2021/07/24 00:12:14;;;;;;;14.20;8.48;;;21.80;99.90;;;;;;5029583;28;20486;-64
2021/07/24 00:14:40;;;;;;;12.85;8.43;;;21.80;99.90;;;;;;5031738;28;20037;-64
2021/07/24 00:17:06;;;;;;;12.65;8.80;;;21.80;99.90;;;;;;5031626;28;20127;-64
2021/07/24 00:19:32;;;;;;;16.13;8.85;;;21.80;99.90;;;;;;5032050;28;20076;-64
2021/07/24 00:21:57;;;;;;;16.05;8.57;;;21.70;99.90;;;;;;5031715;28;20092;-64
2021/07/24 00:24:23;;;;;;;12.98;8.35;;;21.70;99.90;;;;;;5031878;28;20034;-64
2021/07/24 00:26:49;;;;;;;15.05;8.75;;;21.50;99.90;;;;;;5031665;28;20418;-64
2021/07/24 00:29:15;;;;;;;16.67;8.57;;;21.40;99.90;;;;;;5031612;28;20022;-64
2021/07/24 00:31:41;;;;;;;13.57;7.88;;;21.40;99.90;;;;;;5031897;28;20041;-64
2021/07/24 00:34:07;;;;;;;14.48;8.48;;;21.40;99.90;;;;;;5031536;28;20029;-64
2021/07/24 00:36:33;;;;;;;14.57;7.78;;;21.30;99.90;;;;;;5029596;28;20494;-64
2021/07/24 00:38:59;;;;;;;14.60;8.88;;;21.30;99.90;;;;;;5030146;28;20033;-64
2021/07/24 00:41:43;;;;;;;13.73;8.32;;;21.40;99.90;;;;;;5031553;28;20600;-64
2021/07/24 00:44:10;;;;;;;10.95;7.68;;;21.60;99.90;;;;;;5030352;28;20375;-64
2021/07/24 00:46:37;;;;;;;14.27;7.95;;;21.70;99.90;;;;;;5030251;28;20040;-64
2021/07/24 00:49:03;;;;;;;16.10;8.75;;;21.70;99.90;;;;;;5035130;28;20041;-64
2021/07/24 00:51:33;;;;;;;13.60;8.13;;;21.70;99.90;;;;;;5035281;28;20049;-64
2021/07/24 00:54:02;;;;;;;12.68;7.75;;;21.80;99.90;;;;;;5033736;28;20064;-65
2021/07/24 00:56:28;;;;;;;12.40;8.23;;;21.70;99.90;;;;;;5034143;28;20061;-65
2021/07/24 00:58:55;;;;;;;16.60;8.60;;;21.70;99.90;;;;;;5034688;28;20386;-65
2021/07/24 01:01:21;;;;;;;12.68;8.10;;;21.70;99.90;;;;;;5034061;28;20033;-65
2021/07/24 01:03:48;;;;;;;13.13;9.13;;;21.70;99.90;;;;;;5034981;28;20032;-65
2021/07/24 01:06:15;;;;;;;14.18;9.20;;;21.70;99.90;;;;;;5034760;28;20041;-65
2021/07/24 01:08:45;;;;;;;13.82;8.80;;;21.70;99.90;;;;;;5033871;28;20135;-65
2021/07/24 01:11:12;;;;;;;16.40;9.30;;;21.70;99.90;;;;;;5034746;28;20433;-65
2021/07/24 01:13:39;;;;;;;13.73;8.80;;;21.60;99.90;;;;;;5033630;28;20723;-65
2021/07/24 01:16:07;;;;;;;13.65;9.27;;;21.40;99.90;;;;;;5033398;28;20056;-65
2021/07/24 01:18:33;;;;;;;15.27;9.50;;;21.00;99.90;;;;;;5034878;28;20042;-65
2021/07/24 01:21:05;;;;;;;17.05;9.48;;;20.80;99.90;;;;;;5034607;28;20455;-65
2021/07/24 01:23:32;;;;;;;15.40;9.50;;;20.80;99.90;;;;;;5034482;28;20029;-65
2021/07/24 01:25:58;;;;;;;14.35;10.07;;;20.90;99.90;;;;;;5032856;28;20084;-64
2021/07/24 01:28:27;;;;;;;15.23;9.55;;;20.70;99.90;;;;;;5034308;28;20033;-64
2021/07/24 01:30:54;;;;;;;16.98;9.80;;;20.60;99.90;;;;;;5033324;28;20029;-64
2021/07/24 01:33:20;;;;;;;14.52;9.07;;;20.60;99.90;;;;;;5034267;28;20044;-64
2021/07/24 01:35:47;;;;;;;16.92;9.02;;;20.50;99.90;;;;;;5033135;28;20133;-64
2021/07/24 01:38:18;;;;;;;14.55;9.02;;;20.60;99.90;;;;;;5034411;28;20037;-63
2021/07/24 01:40:43;;;;;;;19.55;10.07;;;20.60;99.90;;;;;;5034198;28;20080;-63
2021/07/24 01:43:10;;;;;;;16.17;9.77;;;20.70;99.90;;;;;;5033799;28;20025;-64
2021/07/24 01:45:38;;;;;;;16.73;9.40;;;20.60;99.90;;;;;;5034344;28;20056;-64
2021/07/24 01:48:09;;;;;;;14.35;9.57;;;20.60;99.90;;;;;;5033836;28;20040;-63
2021/07/24 01:53:23;;;;;;;15.25;10.05;;;20.20;99.90;;;;;;5034162;28;20029;-64
2021/07/24 01:55:56;;;;;;;19.55;9.60;;;20.30;99.90;;;;;;5032617;28;20072;-63
2021/07/24 01:58:36;;;;;;;15.93;9.55;;;20.30;99.90;;;;;;5032524;28;20036;-63
2021/07/24 02:01:05;;;;;;;14.63;9.50;;;20.40;99.90;;;;;;5032618;28;20117;-63
2021/07/24 02:03:45;;;;;;;15.55;8.60;;;20.50;99.90;;;;;;5032774;28;20105;-63
2021/07/24 02:06:17;;;;;;;14.20;8.60;;;20.50;99.90;;;;;;5033898;28;20033;-64
2021/07/24 02:08:49;;;;;;;16.95;9.77;;;20.50;99.90;;;;;;5033366;28;20434;-63
2021/07/24 02:11:18;;;;;;;16.85;9.52;;;20.50;99.90;;;;;;5032737;28;20101;-63
2021/07/24 02:13:47;;;;;;;15.98;10.23;;;20.50;99.90;;;;;;5032230;28;20057;-64
2021/07/24 02:16:13;;;;;;;22.00;10.80;;;20.40;99.90;;;;;;5033674;28;20036;-63
2021/07/24 02:18:40;;;;;;;16.05;11.25;;;20.40;99.90;;;;;;5033332;28;20124;-64
2021/07/24 02:21:09;;;;;;;13.70;9.52;;;20.30;99.90;;;;;;5032045;28;20101;-64
2021/07/24 02:23:34;;;;;;;16.42;10.30;;;20.20;99.90;;;;;;5032105;28;20493;-63
2021/07/24 02:26:00;;;;;;;13.88;9.48;;;20.10;99.90;;;;;;5033329;28;20033;-64
2021/07/24 02:28:26;;;;;;;16.70;10.30;;;19.90;99.90;;;;;;5033409;28;20045;-64
2021/07/24 02:30:53;;;;;;;16.55;10.85;;;19.90;99.90;;;;;;5033320;28;20446;-64
2021/07/24 02:33:19;;;;;;;16.55;10.43;;;19.90;99.90;;;;;;5033414;28;20095;-63
2021/07/24 02:35:45;;;;;;;15.52;10.48;;;19.90;99.90;;;;;;5031938;28;20433;-63
2021/07/24 02:38:11;;;;;;;17.58;10.90;;;19.80;99.90;;;;;;5033208;28;20083;-64
2021/07/24 02:40:40;;;;;;;15.73;10.68;;;19.90;99.90;;;;;;5033172;28;20037;-63
2021/07/24 02:43:05;;;;;;;18.95;10.80;;;19.90;99.90;;;;;;5032603;28;20026;-63
2021/07/24 02:45:31;;;;;;;19.10;11.63;;;19.80;99.90;;;;;;5033280;28;20039;-64
2021/07/24 02:47:57;;;;;;;16.92;10.05;;;19.90;99.90;;;;;;5033034;28;20025;-64
2021/07/24 02:50:23;;;;;;;17.35;10.73;;;19.90;99.90;;;;;;5033150;28;20041;-63
2021/07/24 02:52:49;;;;;;;16.00;10.32;;;20.10;99.90;;;;;;5033235;28;20025;-64
2021/07/24 02:55:15;;;;;;;18.95;11.07;;;20.00;99.90;;;;;;5032568;28;20379;-64
2021/07/24 02:57:40;;;;;;;18.05;11.32;;;20.00;99.90;;;;;;5032984;28;20493;-64
2021/07/24 03:00:07;;;;;;;22.42;12.15;;;20.00;99.90;;;;;;5032818;28;20104;-63
2021/07/24 03:02:33;;;;;;;19.73;11.38;;;19.90;99.90;;;;;;5033187;28;20049;-64
2021/07/24 03:04:59;;;;;;;17.85;11.13;;;19.90;99.90;;;;;;5032439;28;20430;-64
2021/07/24 03:07:24;;;;;;;16.65;10.63;;;19.90;99.90;;;;;;5031768;28;20037;-64
2021/07/24 03:09:51;;;;;;;18.73;12.18;;;19.70;99.90;;;;;;5032331;28;20588;-64
2021/07/24 03:12:17;;;;;;;17.85;10.90;;;19.70;99.90;;;;;;5031942;28;20037;-64
2021/07/24 03:14:45;;;;;;;16.23;10.95;;;19.60;99.90;;;;;;5032636;28;20025;-64
2021/07/24 03:17:11;;;;;;;19.20;10.48;;;19.60;99.90;;;;;;5032618;28;20025;-64
2021/07/24 03:19:37;;;;;;;16.75;11.00;;;19.50;99.90;;;;;;5032301;28;20032;-65
2021/07/24 03:22:03;;;;;;;19.58;11.13;;;19.50;99.90;;;;;;5032268;28;20061;-64
2021/07/24 03:24:29;;;;;;;17.63;11.32;;;19.50;99.90;;;;;;5032097;28;20079;-65
2021/07/24 03:26:54;;;;;;;18.98;11.32;;;19.50;99.90;;;;;;5032535;28;20033;-65
2021/07/24 03:29:20;;;;;;;16.42;10.80;;;19.50;99.90;;;;;;5032230;28;20029;-64
2021/07/24 03:31:46;;;;;;;18.63;10.93;;;19.40;99.90;;;;;;5032496;28;20335;-64
2021/07/24 03:34:12;;;;;;;21.67;11.95;;;19.40;99.90;;;;;;5032027;28;20033;-64
2021/07/24 03:36:38;;;;;;;18.98;12.07;;;19.40;99.90;;;;;;5032252;28;20034;-63
2021/07/24 03:39:04;;;;;;;17.67;11.68;;;19.50;99.90;;;;;;5031909;28;20116;-63
2021/07/24 03:41:35;;;;;;;16.70;11.27;;;19.50;99.90;;;;;;5032461;28;20112;-63
2021/07/24 03:44:03;;;;;;;18.08;11.05;;;19.60;99.90;;;;;;5031743;28;20057;-63
2021/07/24 03:46:29;;;;;;;16.70;11.43;;;19.50;99.90;;;;;;5031108;28;20033;-63
2021/07/24 03:48:55;;;;;;;17.95;11.25;;;19.40;99.90;;;;;;5032101;28;20179;-64
2021/07/24 03:51:22;;;;;;;18.10;11.70;;;19.40;99.90;;;;;;5032330;28;20533;-63
2021/07/24 03:53:47;;;;;;;17.00;11.75;;;19.10;99.90;;;;;;5032069;28;20029;-63
2021/07/24 03:56:19;;;;;;;16.83;11.52;;;19.10;99.90;;;;;;5030912;28;20358;-64
2021/07/24 03:58:47;;;;;;;16.90;11.15;;;19.30;99.90;;;;;;5031115;28;20029;-64
2021/07/24 04:01:13;;;;;;;19.63;12.10;;;19.40;99.90;;;;;;5032046;28;20108;-64
2021/07/24 04:03:39;;;;;;;16.63;11.15;;;19.50;99.90;;;;;;5032308;28;20025;-64
2021/07/24 04:06:21;;;;;;;19.88;12.75;;;19.50;99.90;;;;;;5031503;28;20034;-64
2021/07/24 04:08:48;;;;;;;19.40;11.75;;;19.40;99.90;;;;;;5030692;28;20363;-65
2021/07/24 04:11:15;;;;;;;21.30;12.15;;;19.50;99.90;;;;;;5030689;28;20041;-64
2021/07/24 04:13:41;;;;;;;24.52;12.45;;;19.60;99.90;;;;;;5032140;28;20040;-63
2021/07/24 04:16:07;;;;;;;18.83;11.98;;;19.60;99.90;;;;;;5031986;28;20471;-64
2021/07/24 04:18:34;;;;;;;20.80;12.77;;;19.70;99.90;;;;;;5032103;28;20037;-64
2021/07/24 04:21:00;;;;;;;18.75;12.30;;;19.80;99.90;;;;;;5030635;28;20025;-64
2021/07/24 04:23:26;;;;;;;22.85;13.50;;;19.70;99.90;;;;;;5034643;28;20043;-64
2021/07/24 04:25:53;;;;;;;17.67;12.10;;;19.80;99.90;;;;;;5035412;28;20466;-64
2021/07/24 04:28:19;;;;;;;19.80;11.93;;;19.90;99.90;;;;;;5035762;28;20076;-64
2021/07/24 04:30:45;;;;;;;19.50;11.40;;;19.80;99.90;;;;;;5035732;28;20056;-64
2021/07/24 04:33:10;;;;;;;18.63;11.82;;;19.70;99.90;;;;;;5035597;28;20390;-64
2021/07/24 04:35:36;;;;;;;18.75;11.88;;;19.70;99.90;;;;;;5035441;28;20393;-64
2021/07/24 04:38:02;;;;;;;15.65;10.90;;;19.80;99.90;;;;;;5035548;28;20025;-64
2021/07/24 04:40:28;;;;;;;18.42;11.10;;;19.90;99.90;;;;;;5017723;28;20029;-64
2021/07/24 04:42:54;;;;;;;16.95;11.38;;;19.70;99.90;;;;;;5035717;28;20113;-64
2021/07/24 04:45:20;;;;;;;20.20;11.68;;;19.50;99.90;;;;;;5034828;28;20164;-65
2021/07/24 04:47:45;;;;;;;22.17;12.38;;;19.70;99.90;;;;;;5035442;28;20457;-64
2021/07/24 04:50:11;;;;;;;19.05;11.30;;;19.80;99.90;;;;;;5035261;28;20105;-64
2021/07/24 04:52:38;;;;;;;20.65;11.40;;;19.90;99.90;;;;;;5035384;28;20065;-64
2021/07/24 04:55:04;;;;;;;19.38;11.60;;;19.70;99.90;;;;;;5035180;28;20022;-64
2021/07/24 04:57:33;;;;;;;18.67;11.27;;;19.40;99.90;;;;;;5034103;28;20060;-64
2021/07/24 04:59:59;;;;;;;19.95;11.13;;;19.50;99.90;;;;;;5035003;28;20059;-64
2021/07/24 05:02:26;;;;;;;18.30;10.90;;;19.30;99.90;;;;;;5033608;28;20482;-64
2021/07/24 05:04:52;;;;;;;17.65;11.30;;;19.30;99.90;;;;;;5033659;28;20033;-64
2021/07/24 05:07:19;;;;;;;20.27;11.70;;;19.30;99.90;;;;;;5035014;28;20040;-64
2021/07/24 05:09:45;;;;;;;17.02;11.25;;;19.20;99.90;;;;;;5033691;28;20513;-63
2021/07/24 05:12:12;;;;;;;16.98;10.43;;;19.30;99.90;;;;;;5016888;28;20394;-63
2021/07/24 05:14:38;;;;;;;16.35;11.43;;;19.50;99.90;;;;;;5034983;28;20167;-63
2021/07/24 05:17:11;;;;;;;16.48;11.23;;;19.60;99.90;;;;;;5034834;28;20655;-63
2021/07/24 05:19:43;;;;;;;17.40;10.75;;;19.70;99.90;;;;;;5033776;28;20025;-63
2021/07/24 05:22:11;;;;;;;16.02;11.45;;;19.50;99.90;;;;;;5034474;28;20386;-63
2021/07/24 05:24:38;;;;;;;16.10;10.63;;;19.70;99.90;;;;;;5034690;28;20029;-63
2021/07/24 05:27:05;;;;;;;20.13;11.70;;;19.60;99.90;;;;;;5033403;28;20540;-63
2021/07/24 05:29:31;;;;;;;18.48;11.13;;;19.60;99.90;;;;;;5034811;28;20044;-63
2021/07/24 05:31:57;;;;;;;20.38;11.20;;;19.70;99.90;;;;;;5034592;28;20037;-65
2021/07/24 05:34:23;;;;;;;18.88;11.27;;;19.70;99.90;;;;;;5033368;28;20182;-64
2021/07/24 05:36:49;;;;;;;16.67;10.98;;;19.90;99.90;;;;;;5034267;28;20469;-64
2021/07/24 05:39:16;;;;;;;19.83;11.07;;;19.80;99.90;;;;;;5016715;28;20033;-64
2021/07/24 05:41:42;;;;;;;17.65;11.18;;;20.00;99.90;;;;;;5034455;28;20087;-64
2021/07/24 05:44:10;;;;;;;14.95;10.15;;;20.00;99.90;;;;;;5033862;28;20049;-65
2021/07/24 05:46:35;;;;;;;18.17;11.10;;;20.00;99.90;;;;;;5034336;28;20041;-63
2021/07/24 05:49:01;;;;;;;22.17;14.70;;;20.10;99.90;;;;;;5034373;28;20088;-63
2021/07/24 05:51:27;;;;;;;24.60;11.95;;;20.20;99.90;;;;;;5033928;28;20394;-65
2021/07/24 05:53:52;;;;;;;18.13;12.20;;;20.00;99.90;;;;;;5034300;28;20108;-65
2021/07/24 05:56:18;;;;;;;23.27;12.18;;;19.60;99.90;;;;;;5032569;28;20044;-64
2021/07/24 05:58:44;;;;;;;19.05;12.35;;;19.60;99.90;;;;;;5032604;28;20025;-63
2021/07/24 06:01:11;;;;;;;20.27;11.75;;;19.60;99.90;;;;;;5033702;28;20454;-64
2021/07/24 06:03:38;;;;;;;26.20;18.05;;;19.70;99.90;;;;;;5033839;28;20096;-64
2021/07/24 06:06:04;;;;;;;24.73;16.67;;;20.00;99.90;;;;;;5033872;28;20041;-63
2021/07/24 06:08:30;;;;;;;21.67;12.63;;;20.10;99.90;;;;;;5033603;28;20021;-64
2021/07/24 06:11:05;;;;;;;23.05;12.15;;;20.20;99.90;;;;;;5033969;28;20068;-64
2021/07/24 06:13:32;;;;;;;21.42;11.32;;;20.30;99.90;;;;;;5032592;28;20045;-64
2021/07/24 06:15:59;;;;;;;18.58;12.05;;;20.70;99.90;;;;;;5033772;28;20021;-64
2021/07/24 06:18:25;;;;;;;19.13;11.25;;;20.90;99.90;;;;;;5032598;28;20101;-64
2021/07/24 06:20:51;;;;;;;16.90;11.80;;;21.00;99.90;;;;;;5033742;28;20480;-64
2021/07/24 06:23:18;;;;;;;19.40;13.68;;;20.90;99.90;;;;;;5033343;28;20120;-69
2021/07/24 06:25:46;;;;;;;19.98;13.00;;;21.00;99.90;;;;;;5032425;28;20041;-69
2021/07/24 06:28:12;;;;;;;21.27;13.32;;;20.90;99.90;;;;;;5033322;28;20176;-67
2021/07/24 06:30:39;;;;;;;22.90;14.77;;;21.00;99.90;;;;;;5032055;28;20116;-69
2021/07/24 06:33:05;;;;;;;20.20;13.73;;;20.90;99.90;;;;;;5027395;28;20029;-66
2021/07/24 06:35:32;;;;;;;29.08;15.27;;;20.90;99.90;;;;;;5031664;28;20064;-68
2021/07/24 06:37:58;;;;;;;22.10;13.40;;;20.90;99.90;;;;;;5031796;28;20074;-67
2021/07/24 06:40:25;;;;;;;21.35;14.45;;;21.00;99.90;;;;;;5032297;28;20033;-68
2021/07/24 06:42:52;;;;;;;23.02;14.80;;;21.20;99.90;;;;;;5033088;28;20466;-68
2021/07/24 06:45:18;;;;;;;23.50;14.13;;;21.30;99.90;;;;;;5032341;28;20406;-65
2021/07/24 06:47:43;;;;;;;24.17;14.60;;;21.40;99.90;;;;;;5032985;28;20037;-64
2021/07/24 06:50:10;;;;;;;19.45;13.75;;;21.40;99.90;;;;;;5032925;28;20024;-68
2021/07/24 06:52:36;;;;;;;19.52;13.77;;;21.40;99.90;;;;;;5032972;28;20069;-68
2021/07/24 06:55:02;;;;;;;18.48;11.23;;;21.50;99.90;;;;;;5032818;28;20052;-69
2021/07/24 06:57:28;;;;;;;26.98;13.15;;;21.50;99.90;;;;;;5029079;28;20030;-64
2021/07/24 06:59:54;;;;;;;20.48;11.55;;;21.40;99.90;;;;;;5031981;28;20491;-66
2021/07/24 07:02:19;;;;;;;18.15;11.60;;;21.50;99.90;;;;;;5031613;28;20105;-73
2021/07/24 07:04:45;;;;;;;16.88;10.88;;;21.50;99.90;;;;;;5034841;28;20112;-67
2021/07/24 07:07:11;;;;;;;16.85;10.55;;;21.30;99.90;;;;;;5031323;28;20072;-67
2021/07/24 07:09:37;;;;;;;16.55;11.05;;;21.40;99.90;;;;;;5031125;28;20044;-62
2021/07/24 07:12:03;;;;;;;14.57;10.20;;;21.40;99.90;;;;;;5032601;28;20037;-64
2021/07/24 07:14:30;;;;;;;18.30;10.10;;;21.30;99.90;;;;;;5032463;28;20156;-64
2021/07/24 07:16:56;;;;;;;18.45;9.98;;;21.20;99.90;;;;;;5032471;28;20072;-67
2021/07/24 07:19:22;;;;;;;17.58;10.52;;;21.30;99.90;;;;;;5032203;28;20029;-67
2021/07/24 07:21:48;;;;;;;13.57;9.15;;;21.20;99.90;;;;;;5032307;28;20429;-68
2021/07/24 07:24:14;;;;;;;14.48;10.32;;;21.30;99.90;;;;;;5032078;28;20033;-68
2021/07/24 07:26:41;;;;;;;15.45;9.60;;;21.40;99.90;;;;;;5038532;28;20048;-70
2021/07/24 07:29:08;;;;;;;15.23;9.98;;;21.40;99.90;;;;;;5052265;28;20029;-72
2021/07/24 07:31:36;;;;;;;16.35;10.07;;;21.40;99.90;;;;;;5051981;28;20045;-71
2021/07/24 07:34:03;;;;;;;16.92;10.25;;;21.50;99.90;;;;;;5052091;28;20033;-74
2021/07/24 07:36:30;;;;;;;17.10;9.35;;;21.50;99.90;;;;;;5052213;28;20025;-76
2021/07/24 07:38:56;;;;;;;15.13;9.55;;;21.50;99.90;;;;;;5052080;28;20036;-69
2021/07/24 07:41:22;;;;;;;15.52;9.75;;;21.60;99.90;;;;;;5051815;28;20365;-66
2021/07/24 07:43:49;;;;;;;13.20;9.00;;;21.50;99.90;;;;;;5051837;28;20508;-66
2021/07/24 07:46:16;;;;;;;15.30;9.00;;;21.60;99.90;;;;;;5052000;28;20035;-73
2021/07/24 07:48:43;;;;;;;18.92;10.25;;;21.80;99.90;;;;;;5050968;28;20033;-75
2021/07/24 07:51:09;;;;;;;15.10;10.07;;;21.70;99.90;;;;;;5052136;28;20500;-75
2021/07/24 07:53:36;;;;;;;14.50;8.90;;;21.70;99.90;;;;;;5051954;28;20051;-77
2021/07/24 07:56:02;;;;;;;13.52;9.43;;;21.50;99.90;;;;;;5050929;28;20111;-71
2021/07/24 07:58:28;;;;;;;22.45;10.52;;;21.50;99.90;;;;;;5034977;28;20060;-73
2021/07/24 08:00:54;;;;;;;16.35;10.27;;;21.60;99.90;;;;;;5036352;28;20103;-76
2021/07/24 08:03:24;;;;;;;19.10;10.02;;;21.50;99.90;;;;;;5034809;28;20374;-76
2021/07/24 08:05:52;;;;;;;13.93;9.27;;;21.30;99.90;;;;;;5036042;28;20121;-79
2021/07/24 08:08:18;;;;;;;15.60;9.73;;;21.40;99.90;;;;;;5035824;28;20122;-74
2021/07/24 08:10:44;;;;;;;16.48;10.77;;;21.30;99.90;;;;;;5034508;28;20064;-79
2021/07/24 08:13:15;;;;;;;17.80;9.85;;;21.30;99.90;;;;;;5035702;28;20029;-72
2021/07/24 08:15:42;;;;;;;16.45;10.48;;;21.30;99.90;;;;;;5035780;28;20026;-75
2021/07/24 08:18:08;;;;;;;17.60;10.18;;;21.40;99.90;;;;;;5035687;28;20033;-75
2021/07/24 08:20:34;;;;;;;14.20;9.32;;;21.70;99.90;;;;;;5034382;28;20034;-78
2021/07/24 08:23:03;;;;;;;17.65;9.40;;;21.80;99.90;;;;;;5035414;28;20034;-74
2021/07/24 08:25:28;;;;;;;16.67;9.60;;;22.00;99.90;;;;;;5034326;28;20041;-78
2021/07/24 08:27:54;;;;;;;15.30;9.82;;;22.10;99.90;;;;;;5031039;28;20104;-76
2021/07/24 08:30:20;;;;;;;15.70;9.35;;;22.20;99.90;;;;;;5015828;28;20128;-76
2021/07/24 08:32:46;;;;;;;17.33;9.95;;;22.20;99.90;;;;;;5014255;28;20111;-76
2021/07/24 08:35:12;;;;;;;18.15;8.48;;;22.00;99.90;;;;;;5015498;28;20041;-75
2021/07/24 08:37:37;;;;;;;17.55;9.93;;;22.20;99.90;;;;;;5014089;28;20083;-77
2021/07/24 08:40:04;;;;;;;19.40;9.75;;;22.10;99.90;;;;;;5015512;28;20395;-77
2021/07/24 08:42:39;;;;;;;14.15;8.55;;;22.10;99.90;;;;;;5015551;28;20461;-78
2021/07/24 08:45:08;;;;;;;16.48;9.95;;;22.30;99.90;;;;;;5015156;28;20042;-76
2021/07/24 08:47:34;;;;;;;15.38;8.88;;;22.40;99.90;;;;;;5014483;28;20143;-67
2021/07/24 08:50:02;;;;;;;15.73;9.85;;;22.50;99.90;;;;;;5014226;28;20030;-76
2021/07/24 08:52:31;;;;;;;15.27;10.00;;;22.60;99.90;;;;;;5015432;28;20034;-75
2021/07/24 08:54:58;;;;;;;16.90;9.57;;;22.70;99.90;;;;;;5015660;28;20058;-75
2021/07/24 08:57:32;;;;;;;15.90;9.88;;;22.60;99.90;;;;;;5014857;28;20101;-78
2021/07/24 09:00:04;;;;;;;15.77;8.90;;;22.60;99.90;;;;;;5014192;28;20053;-78
2021/07/24 09:02:31;;;;;;;16.35;9.82;;;22.50;99.90;;;;;;5014963;28;20450;-77
2021/07/24 09:05:05;;;;;;;15.35;9.23;;;22.60;99.90;;;;;;5015016;28;20033;-77
2021/07/24 09:07:46;;;;;;;15.82;8.77;;;22.60;99.90;;;;;;5031379;28;20056;-77
2021/07/24 09:10:14;;;;;;;14.32;9.05;;;22.70;99.90;;;;;;5035065;28;20083;-74
2021/07/24 09:12:58;;;;;;;16.13;8.48;;;23.00;99.90;;;;;;5034683;28;20386;-76
2021/07/24 09:15:24;;;;;;;14.43;8.80;;;23.30;99.90;;;;;;5034735;28;20125;-74
2021/07/24 09:17:50;;;;;;;13.82;8.90;;;23.50;99.90;;;;;;5034803;28;20033;-74
2021/07/24 09:20:20;;;;;;;13.05;8.02;;;23.60;99.90;;;;;;5034751;28;20099;-72
2021/07/24 09:22:47;;;;;;;15.88;9.20;;;23.50;99.90;;;;;;5034834;28;20030;-73
2021/07/24 09:25:12;;;;;;;16.50;9.68;;;23.40;99.90;;;;;;5033377;28;20326;-73
2021/07/24 09:27:50;;;;;;;13.70;8.75;;;23.50;99.90;;;;;;5034148;28;20041;-74
2021/07/24 09:30:28;;;;;;;15.27;9.20;;;23.70;99.90;;;;;;5034257;28;20050;-73
2021/07/24 09:33:07;;;;;;;13.60;8.23;;;23.80;99.90;;;;;;5033114;28;20541;-74
2021/07/24 09:35:49;;;;;;;13.40;8.90;;;24.00;99.90;;;;;;5034409;28;20107;-72
2021/07/24 09:38:38;;;;;;;16.20;8.95;;;24.30;99.90;;;;;;5033041;28;20370;-73
2021/07/24 09:41:17;;;;;;;15.60;8.68;;;24.40;99.90;;;;;;5036011;28;20116;-72
2021/07/24 09:43:43;;;;;;;13.32;7.70;;;24.30;99.90;;;;;;5032899;28;20092;-73
2021/07/24 09:46:21;;;;;;;13.98;8.80;;;24.40;99.90;;;;;;5034039;28;20042;-74
2021/07/24 09:48:54;;;;;;;14.20;8.30;;;24.40;99.90;;;;;;5034181;28;20373;-74
2021/07/24 09:51:33;;;;;;;14.48;8.88;;;24.30;99.90;;;;;;5032549;28;20491;-73
2021/07/24 09:53:59;;;;;;;12.32;8.20;;;24.20;99.90;;;;;;5032862;28;20034;-72
2021/07/24 09:56:44;;;;;;;13.45;8.50;;;24.30;99.90;;;;;;5037990;28;20120;-72
2021/07/24 09:59:45;;;;;;;16.90;8.98;;;24.60;99.90;;;;;;5053726;28;20385;-72
2021/07/24 10:02:13;;;;;;;16.10;8.95;;;24.70;99.90;;;;;;5028820;28;20042;-72
2021/07/24 10:04:40;;;;;;;13.77;7.80;;;24.70;99.90;;;;;;5028584;28;20079;-74
2021/07/24 10:07:08;;;;;;;15.23;8.93;;;24.80;99.90;;;;;;5033849;28;20034;-73
2021/07/24 10:09:39;;;;;;;11.55;7.32;;;24.90;99.90;;;;;;5032515;28;20025;-74
2021/07/24 10:12:09;;;;;;;13.80;8.23;;;25.20;99.90;;;;;;5032686;28;20443;-73
2021/07/24 10:14:35;;;;;;;12.32;7.82;;;25.30;99.90;;;;;;5033671;28;20029;-75
2021/07/24 10:17:01;;;;;;;12.93;7.43;;;25.40;99.90;;;;;;5033564;28;20033;-74
2021/07/24 10:19:28;;;;;;;12.43;7.35;;;25.50;99.90;;;;;;5031991;28;20030;-72
2021/07/24 10:21:57;;;;;;;10.80;6.22;;;25.70;99.90;;;;;;5033217;28;20034;-73
2021/07/24 10:24:24;;;;;;;11.35;6.47;;;25.40;99.90;;;;;;5033449;28;20653;-73
2021/07/24 10:27:08;;;;;;;10.93;6.57;;;25.60;99.90;;;;;;5041092;28;20091;-72
2021/07/24 10:29:41;;;;;;;15.65;7.22;;;25.80;99.90;;;;;;5036311;28;20032;-72
2021/07/24 10:32:14;;;;;;;11.38;6.90;;;25.90;99.90;;;;;;5052009;28;20044;-73
2021/07/24 10:34:49;;;;;;;11.63;6.75;;;26.00;99.90;;;;;;5053449;28;20033;-72
2021/07/24 10:37:44;;;;;;;10.85;6.68;;;26.30;99.90;;;;;;5052084;28;20025;-72
2021/07/24 10:40:16;;;;;;;13.65;6.90;;;26.20;99.90;;;;;;5036255;28;20036;-72
2021/07/24 10:42:53;;;;;;;13.40;7.20;;;26.40;99.90;;;;;;5052889;28;20120;-73
2021/07/24 10:45:37;;;;;;;9.70;6.03;;;26.50;99.90;;;;;;5052598;28;20044;-73
2021/07/24 10:48:15;;;;;;;10.55;6.38;;;26.40;99.90;;;;;;5052892;28;20037;-73
2021/07/24 10:50:52;;;;;;;8.32;5.28;;;26.70;99.90;;;;;;5052803;28;20033;-72
2021/07/24 10:53:21;;;;;;;10.93;5.22;;;26.70;99.70;;;;;;5052967;28;20131;-73
2021/07/24 10:55:52;;;;;;;9.88;5.35;;;26.80;99.70;;;;;;5052580;28;20029;-72
2021/07/24 10:58:22;;;;;;;10.45;6.05;;;27.10;98.70;;;;;;5031061;28;20556;-72
2021/07/24 11:00:51;;;;;;;11.50;7.15;;;27.00;99.20;;;;;;5031654;28;20057;-73
2021/07/24 11:03:31;;;;;;;12.10;7.05;;;27.00;99.10;;;;;;5032874;28;20103;-73
2021/07/24 11:05:59;;;;;;;12.50;7.15;;;27.10;99.90;;;;;;5035390;28;20037;-76
2021/07/24 11:08:59;;;;;;;11.43;7.05;;;27.20;99.80;;;;;;5032377;28;20033;-73
2021/07/24 11:11:38;;;;;;;12.13;7.80;;;27.40;98.80;;;;;;5012504;28;20079;-75
2021/07/24 11:14:04;;;;;;;12.07;6.93;;;27.60;98.90;;;;;;5011559;28;20048;-75
2021/07/24 11:17:07;;;;;;;8.20;6.35;;;27.80;98.50;;;;;;5012740;28;20122;-75
2021/07/24 11:20:00;;;;;;;11.93;7.47;;;27.70;98.10;;;;;;5012458;28;20455;-74
2021/07/24 11:22:30;;;;;;;10.32;7.00;;;27.60;98.20;;;;;;5011045;28;20433;-74
2021/07/24 11:24:58;;;;;;;11.88;7.00;;;27.90;99.20;;;;;;5011143;28;20509;-74
2021/07/24 11:27:32;;;;;;;12.13;6.68;;;28.40;97.70;;;;;;5012691;28;20124;-74
2021/07/24 11:30:04;;;;;;;12.00;7.45;;;28.80;97.30;;;;;;5012280;28;20406;-74
2021/07/24 11:32:36;;;;;;;9.85;6.60;;;29.00;96.30;;;;;;5011482;28;20521;-74
2021/07/24 11:35:13;;;;;;;10.32;6.45;;;28.70;95.30;;;;;;5011176;28;20069;-75
2021/07/24 11:37:43;;;;;;;12.95;7.40;;;28.80;95.80;;;;;;4995038;28;20109;-75
2021/07/24 11:40:27;;;;;;;10.23;6.47;;;28.80;95.10;;;;;;5011050;28;20360;-75
2021/07/24 11:43:06;;;;;;;15.48;8.15;;;28.70;95.40;;;;;;5011269;28;20041;-74
2021/07/24 11:45:38;;;;;;;9.77;6.93;;;28.70;95.80;;;;;;5012306;28;20038;-74
2021/07/24 11:48:08;;;;;;;9.25;6.55;;;28.90;95.70;;;;;;4995240;28;20057;-74
2021/07/24 11:50:34;;;;;;;9.20;6.60;;;29.20;94.40;;;;;;5012100;28;20041;-74
2021/07/24 11:53:01;;;;;;;13.00;6.93;;;28.80;94.60;;;;;;5011309;28;20471;-74
2021/07/24 11:55:33;;;;;;;9.43;6.00;;;28.60;95.60;;;;;;5011039;28;20455;-74
2021/07/24 11:57:59;;;;;;;13.23;7.13;;;27.90;95.40;;;;;;5010955;28;20068;-74
2021/07/24 12:00:37;;;;;;;11.35;6.90;;;28.00;95.80;;;;;;5012239;28;20038;-74
2021/07/24 12:03:30;;;;;;;10.65;5.78;;;27.70;95.30;;;;;;4995263;28;20096;-74
2021/07/24 12:06:13;;;;;;;10.55;6.45;;;27.70;95.20;;;;;;5009690;28;20053;-74
2021/07/24 12:08:45;;;;;;;11.27;6.35;;;27.70;95.90;;;;;;5010829;28;20026;-74
2021/07/24 12:11:16;;;;;;;10.05;6.30;;;27.90;95.50;;;;;;4994544;28;20054;-74
2021/07/24 12:13:44;;;;;;;8.77;6.10;;;28.20;95.30;;;;;;5010378;28;20026;-73
2021/07/24 12:16:12;;;;;;;10.32;6.00;;;27.90;95.80;;;;;;5012358;28;20049;-74
2021/07/24 12:18:47;;;;;;;10.52;6.43;;;27.90;95.50;;;;;;5011852;28;20110;-74
2021/07/24 12:21:18;;;;;;;10.77;6.03;;;27.70;95.20;;;;;;5011943;28;20042;-74
2021/07/24 12:23:57;;;;;;;;;;;27.70;95.30;;;;;;5012214;28;20060;-74
2021/07/24 12:26:34;;;;;;;11.05;5.85;;;27.80;95.70;;;;;;5010497;28;20362;-73
2021/07/24 12:29:08;;;;;;;8.27;4.90;;;27.80;94.90;;;;;;4995713;28;20034;-73
2021/07/24 12:31:47;;;;;;;9.38;4.88;;;27.90;94.80;;;;;;5011788;28;20041;-74
2021/07/24 12:34:24;;;;;;;9.55;4.57;;;27.70;94.80;;;;;;5010635;28;20383;-74
2021/07/24 12:36:59;;;;;;;8.13;4.68;;;27.50;94.80;;;;;;5010637;28;20045;-73
2021/07/24 12:39:31;;;;;;;8.13;4.72;;;27.60;95.00;;;;;;5010249;28;20057;-74
2021/07/24 12:42:03;;;;;;;7.95;3.90;;;27.70;94.90;;;;;;4992851;28;20038;-73
2021/07/24 12:44:49;;;;;;;8.23;4.10;;;27.60;94.40;;;;;;5013986;28;20095;-75